Time;durP1;ratioP1;P1;durP2;ratioP2;P2;SDS_P1;SDS_P2;PMS_P1;PMS_P2;Temp;Humidity;BMP_temperature;BMP_pressure;BME280_temperature;BME280_humidity;BME280_pressure;Samples;Min_cycle;Max_cycle;Signal;HPM_P1;HPM_P2
2022/07/02 00:02:07;;;;;;;17.13;12.10;;;;;;;;;;4984878;28;20255;-84
2022/07/02 00:04:33;;;;;;;15.98;13.07;;;;;;;;;;4969317;28;20184;-85
2022/07/02 00:06:59;;;;;;;15.07;11.98;;;12.80;99.90;;;;;;4969913;28;20187;-86
2022/07/02 00:09:27;;;;;;;12.93;11.60;;;12.70;99.90;;;;;;4968215;28;20694;-85
2022/07/02 00:11:57;;;;;;;12.93;11.50;;;12.90;99.90;;;;;;4983659;28;20190;-84
2022/07/02 00:14:23;;;;;;;14.52;11.40;;;13.00;99.90;;;;;;4968699;28;20226;-84
2022/07/02 00:16:49;;;;;;;13.07;11.63;;;13.00;99.90;;;;;;4986869;28;20193;-84
2022/07/02 00:19:15;;;;;;;15.95;11.95;;;13.00;99.90;;;;;;4968920;28;20327;-84
2022/07/02 00:21:40;;;;;;;14.65;11.98;;;13.10;99.90;;;;;;4969340;28;20181;-84
2022/07/02 00:24:07;;;;;;;13.20;11.00;;;13.00;99.90;;;;;;4967655;28;20232;-84
2022/07/02 00:26:37;;;;;;;14.35;10.57;;;13.10;99.90;;;;;;4967857;28;20852;-83
2022/07/02 00:29:12;;;;;;;12.43;10.57;;;13.10;99.90;;;;;;4982616;28;20246;-83
2022/07/02 00:31:38;;;;;;;13.57;10.38;;;13.00;99.90;;;;;;4983601;28;20526;-83
2022/07/02 00:34:05;;;;;;;14.57;11.55;;;12.90;99.90;;;;;;4968453;28;20262;-84
2022/07/02 00:36:35;;;;;;;18.02;10.75;;;12.80;99.90;;;;;;4968904;28;20187;-85
2022/07/02 00:39:00;;;;;;;12.23;9.70;;;12.60;99.90;;;;;;4967596;28;20181;-84
2022/07/02 00:41:27;;;;;;;15.35;10.30;;;12.60;99.90;;;;;;4967517;28;20195;-84
2022/07/02 00:43:54;;;;;;;14.35;10.45;;;12.50;99.90;;;;;;4966494;28;20211;-85
2022/07/02 00:46:21;;;;;;;17.83;10.07;;;12.60;99.90;;;;;;4968360;28;20196;-84
2022/07/02 00:48:46;;;;;;;15.98;9.75;;;12.60;99.90;;;;;;4966445;28;20188;-83
2022/07/02 00:51:12;;;;;;;10.55;8.90;;;12.60;99.90;;;;;;4985778;28;20373;-83
2022/07/02 00:53:38;;;;;;;17.70;10.57;;;12.60;99.90;;;;;;4985186;28;20262;-84
2022/07/02 00:56:04;;;;;;;20.33;10.00;;;12.50;99.90;;;;;;4967670;28;20198;-83
2022/07/02 00:58:31;;;;;;;12.87;9.00;;;12.50;99.90;;;;;;4967701;28;20267;-83
2022/07/02 01:00:58;;;;;;;12.37;9.17;;;12.20;99.90;;;;;;4967297;28;20188;-84
2022/07/02 01:03:25;;;;;;;17.20;9.37;;;12.00;99.90;;;;;;4967294;28;20208;-83
2022/07/02 01:05:52;;;;;;;13.37;9.30;;;12.10;99.90;;;;;;4967373;28;20653;-83
2022/07/02 01:11:04;;;;;;;14.35;8.50;;;12.40;99.90;;;;;;4986126;28;20315;-84
2022/07/02 01:13:32;;;;;;;13.60;9.13;;;12.50;99.90;;;;;;4968936;28;20242;-84
2022/07/02 01:15:58;;;;;;;18.35;9.40;;;12.50;99.90;;;;;;4972502;28;20194;-84
2022/07/02 01:18:23;;;;;;;12.90;8.13;;;12.50;99.90;;;;;;4971091;28;20279;-84
2022/07/02 01:20:49;;;;;;;13.07;8.45;;;12.50;99.90;;;;;;4971912;28;20591;-84
2022/07/02 01:23:15;;;;;;;14.98;8.98;;;12.40;99.90;;;;;;4972108;28;20326;-85
2022/07/02 01:25:47;;;;;;;13.53;8.30;;;12.50;99.90;;;;;;4971467;28;20280;-84
2022/07/02 01:28:13;;;;;;;10.47;7.57;;;12.40;99.90;;;;;;4971649;28;20192;-84
2022/07/02 01:30:39;;;;;;;13.35;8.13;;;12.30;99.90;;;;;;4971468;28;20188;-83
2022/07/02 01:33:04;;;;;;;16.23;8.47;;;12.30;99.90;;;;;;4988568;28;20693;-83
2022/07/02 01:35:30;;;;;;;10.80;7.40;;;12.30;99.90;;;;;;4970621;28;20626;-84
2022/07/02 01:37:56;;;;;;;16.10;7.40;;;12.20;99.90;;;;;;4971703;28;20621;-84
2022/07/02 01:40:21;;;;;;;10.55;8.10;;;12.20;99.90;;;;;;4971883;28;20184;-83
2022/07/02 01:42:47;;;;;;;16.05;9.07;;;12.30;99.90;;;;;;4971260;28;20208;-84
2022/07/02 01:45:12;;;;;;;16.13;9.07;;;12.30;99.90;;;;;;4970935;28;20184;-84
2022/07/02 01:47:38;;;;;;;17.97;9.63;;;12.10;99.90;;;;;;4971417;28;20556;-84
2022/07/02 01:50:04;;;;;;;22.00;8.80;;;12.10;99.90;;;;;;4970803;28;20188;-85
2022/07/02 01:52:30;;;;;;;18.87;11.07;;;12.00;99.90;;;;;;4970669;28;20204;-84
2022/07/02 01:54:56;;;;;;;16.47;9.77;;;11.90;99.90;;;;;;4970088;28;20235;-84
2022/07/02 01:57:21;;;;;;;19.10;10.30;;;11.80;99.90;;;;;;4970203;28;20295;-83
2022/07/02 01:59:47;;;;;;;17.20;9.37;;;11.80;99.90;;;;;;4970386;28;20188;-84
2022/07/02 02:02:12;;;;;;;21.57;9.60;;;11.70;99.90;;;;;;4970669;28;20235;-83
2022/07/02 02:04:39;;;;;;;20.33;9.37;;;11.60;99.90;;;;;;4970198;28;20188;-83
2022/07/02 02:07:04;;;;;;;13.10;8.50;;;11.60;99.90;;;;;;4988799;28;20192;-83
2022/07/02 02:09:30;;;;;;;14.23;7.80;;;11.70;99.90;;;;;;4970600;28;20195;-84
2022/07/02 02:11:56;;;;;;;10.77;7.57;;;11.80;99.90;;;;;;4969947;28;20199;-83
2022/07/02 02:14:21;;;;;;;14.27;7.43;;;11.80;99.90;;;;;;4969773;28;20212;-83
2022/07/02 02:16:47;;;;;;;15.97;6.93;;;12.00;99.90;;;;;;4971183;28;20573;-83
2022/07/02 02:19:13;;;;;;;11.43;5.97;;;12.00;99.90;;;;;;4970081;28;20177;-83
2022/07/02 02:21:38;;;;;;;13.87;6.73;;;12.10;99.90;;;;;;4970239;28;20180;-84
2022/07/02 02:24:04;;;;;;;18.20;6.27;;;12.20;99.90;;;;;;4969581;28;20300;-83
2022/07/02 02:26:30;;;;;;;13.37;6.40;;;12.00;99.90;;;;;;4970493;28;20196;-84
2022/07/02 02:28:55;;;;;;;11.87;6.10;;;11.90;99.90;;;;;;4970342;28;20200;-83
2022/07/02 02:31:22;;;;;;;14.53;6.00;;;11.90;99.90;;;;;;4969121;28;20192;-84
2022/07/02 02:33:48;;;;;;;15.53;6.47;;;12.10;99.90;;;;;;4969939;28;20204;-83
2022/07/02 02:36:14;;;;;;;7.97;6.30;;;12.00;99.90;;;;;;4969187;28;20188;-83
2022/07/02 02:38:39;;;;;;;11.37;5.53;;;12.00;99.90;;;;;;4970773;28;20220;-83
2022/07/02 02:41:05;;;;;;;11.90;5.87;;;12.00;99.90;;;;;;4969660;28;20191;-83
2022/07/02 02:43:35;;;;;;;11.03;5.53;;;12.00;99.90;;;;;;4987356;28;20298;-83
2022/07/02 02:46:02;;;;;;;8.33;5.97;;;12.10;99.90;;;;;;4969501;28;20219;-84
2022/07/02 02:48:28;;;;;;;12.33;5.73;;;12.10;99.90;;;;;;4987110;28;20188;-83
2022/07/02 02:50:54;;;;;;;8.87;5.80;;;12.00;99.90;;;;;;4969808;28;20196;-84
2022/07/02 02:53:19;;;;;;;15.43;6.03;;;12.10;99.90;;;;;;4969380;28;20212;-84
2022/07/02 02:55:45;;;;;;;15.00;6.30;;;11.90;99.90;;;;;;4970606;28;20690;-84
2022/07/02 02:58:10;;;;;;;13.00;6.47;;;11.80;99.90;;;;;;4969708;28;20231;-86
2022/07/02 03:00:36;;;;;;;13.23;6.17;;;11.90;99.90;;;;;;4987215;28;20192;-85
2022/07/02 03:03:02;;;;;;;18.57;6.53;;;11.80;99.90;;;;;;4969143;28;20208;-84
2022/07/02 03:05:27;;;;;;;17.50;7.17;;;11.60;99.90;;;;;;4969708;28;20191;-84
2022/07/02 03:07:53;;;;;;;13.63;7.40;;;11.50;99.90;;;;;;4986778;28;20272;-84
2022/07/02 03:10:19;;;;;;;13.20;6.87;;;11.50;99.90;;;;;;4969581;28;20188;-84
2022/07/02 03:12:44;;;;;;;20.20;7.57;;;11.50;99.90;;;;;;4986365;28;20748;-84
2022/07/02 03:15:10;;;;;;;12.07;6.23;;;11.50;99.90;;;;;;4987014;28;21204;-83
2022/07/02 03:17:36;;;;;;;13.13;6.63;;;11.70;99.90;;;;;;4986295;28;20188;-84
2022/07/02 03:20:02;;;;;;;14.53;6.07;;;11.80;99.90;;;;;;4967907;28;20191;-84
2022/07/02 03:22:27;;;;;;;13.37;5.83;;;11.80;99.90;;;;;;4969172;28;20295;-83
2022/07/02 03:24:53;;;;;;;12.67;5.93;;;11.70;99.90;;;;;;4968441;28;20275;-81
2022/07/02 03:27:18;;;;;;;10.77;5.67;;;11.60;99.90;;;;;;4984753;28;20267;-84
2022/07/02 03:29:44;;;;;;;10.43;5.93;;;11.60;99.90;;;;;;4986133;28;20211;-82
2022/07/02 03:32:09;;;;;;;10.50;6.80;;;11.60;99.90;;;;;;4967419;28;20212;-84
2022/07/02 03:34:35;;;;;;;7.97;5.90;;;11.50;99.90;;;;;;4986282;28;20203;-83
2022/07/02 03:37:00;;;;;;;12.77;6.17;;;11.60;99.90;;;;;;4968311;28;20195;-82
2022/07/02 03:39:26;;;;;;;14.20;6.87;;;11.80;99.90;;;;;;4968007;28;20195;-82
2022/07/02 03:41:51;;;;;;;12.63;5.80;;;11.90;99.90;;;;;;4986808;28;20187;-81
2022/07/02 03:44:17;;;;;;;9.30;5.33;;;12.00;99.90;;;;;;4968689;28;20199;-82
2022/07/02 03:46:43;;;;;;;10.57;5.73;;;12.00;99.90;;;;;;4985715;28;20680;-82
2022/07/02 03:49:08;;;;;;;11.40;5.80;;;12.10;99.90;;;;;;4967263;28;20199;-82
2022/07/02 03:51:34;;;;;;;9.95;5.55;;;12.10;99.90;;;;;;4966934;28;20192;-82
2022/07/02 03:53:59;;;;;;;8.63;5.60;;;12.20;99.90;;;;;;4967140;28;21184;-82
2022/07/02 03:56:25;;;;;;;10.70;5.70;;;12.20;99.90;;;;;;4968044;28;20188;-82
2022/07/02 03:58:51;;;;;;;9.00;5.70;;;12.20;99.90;;;;;;4968807;28;20202;-82
2022/07/02 04:01:16;;;;;;;9.15;5.55;;;12.20;99.90;;;;;;4968628;28;20192;-82
2022/07/02 04:03:42;;;;;;;11.73;6.32;;;12.20;99.90;;;;;;4968604;28;20624;-82
2022/07/02 04:06:08;;;;;;;7.68;5.47;;;12.20;99.90;;;;;;4968392;28;20254;-82
2022/07/02 04:08:33;;;;;;;12.75;5.70;;;12.20;99.90;;;;;;4968614;28;20736;-82
2022/07/02 04:10:59;;;;;;;13.47;5.77;;;12.10;99.90;;;;;;4968746;28;20855;-82
2022/07/02 04:13:24;;;;;;;7.53;5.07;;;12.00;99.90;;;;;;4968595;28;20208;-83
2022/07/02 04:15:50;;;;;;;9.63;5.47;;;12.00;99.90;;;;;;4969113;28;20195;-82
2022/07/02 04:18:18;;;;;;;6.38;5.13;;;12.10;99.90;;;;;;4985986;28;20176;-81
2022/07/02 04:20:43;;;;;;;10.20;5.50;;;12.20;99.90;;;;;;4967765;28;20222;-82
2022/07/02 04:23:09;;;;;;;8.63;5.30;;;12.30;99.90;;;;;;4986373;28;20693;-82
2022/07/02 04:25:35;;;;;;;12.38;5.45;;;12.40;99.90;;;;;;4968714;28;20188;-82
2022/07/02 04:28:01;;;;;;;6.25;4.97;;;12.60;99.90;;;;;;4968889;28;20192;-82
2022/07/02 04:30:27;;;;;;;8.10;5.10;;;12.70;99.90;;;;;;4986072;28;20529;-82
2022/07/02 04:32:52;;;;;;;10.55;5.15;;;12.80;99.90;;;;;;4967245;28;20219;-82
2022/07/02 04:35:18;;;;;;;6.70;4.80;;;12.90;99.90;;;;;;4985986;28;20176;-82
2022/07/02 04:37:43;;;;;;;8.55;4.72;;;13.00;99.90;;;;;;4985604;28;20189;-81
2022/07/02 04:40:09;;;;;;;7.75;4.70;;;13.10;99.90;;;;;;4967877;28;20234;-82
2022/07/02 04:42:35;;;;;;;11.55;5.13;;;13.20;99.90;;;;;;4968251;28;20216;-82
2022/07/02 04:45:00;;;;;;;9.13;4.47;;;13.30;99.90;;;;;;4985932;28;20415;-82
2022/07/02 04:47:26;;;;;;;6.65;4.28;;;13.40;99.90;;;;;;4987511;28;20457;-82
2022/07/02 04:49:52;;;;;;;7.22;4.63;;;13.50;99.90;;;;;;4971122;28;20242;-82
2022/07/02 04:52:17;;;;;;;13.02;5.88;;;13.60;99.90;;;;;;4967981;28;20223;-83
2022/07/02 04:54:43;;;;;;;10.43;5.68;;;13.50;99.90;;;;;;4985741;28;20215;-82
2022/07/02 04:57:08;;;;;;;12.32;5.95;;;13.40;99.90;;;;;;4986543;28;20465;-82
2022/07/02 04:59:34;;;;;;;8.65;4.82;;;13.50;99.90;;;;;;4968316;28;20180;-83
2022/07/02 05:02:00;;;;;;;7.93;5.45;;;13.80;99.90;;;;;;4968272;28;20207;-83
2022/07/02 05:04:25;;;;;;;11.82;3.92;;;14.50;99.90;;;;;;4968975;28;20666;-83
2022/07/02 05:06:51;;;;;;;11.40;3.45;;;15.40;99.90;;;;;;4986588;28;20199;-83
2022/07/02 05:09:17;;;;;;;5.93;2.55;;;16.30;99.90;;;;;;4968442;28;20192;-83
2022/07/02 05:11:43;;;;;;;8.45;3.17;;;17.20;99.90;;;;;;4968441;28;20196;-84
2022/07/02 05:14:08;;;;;;;5.95;2.50;;;17.90;26.90;;;;;;4986084;28;20220;-84
2022/07/02 05:16:34;;;;;;;7.30;2.90;;;18.40;2.20;;;;;;4968531;28;20184;-83
2022/07/02 05:18:59;;;;;;;5.68;2.10;;;18.80;1.00;;;;;;4967907;28;20200;-83
2022/07/02 05:21:25;;;;;;;5.00;1.88;;;19.10;1.00;;;;;;4968084;28;20212;-83
2022/07/02 05:23:51;;;;;;;3.45;1.67;;;19.70;1.00;;;;;;4968254;28;20220;-83
2022/07/02 05:26:19;;;;;;;2.13;1.63;;;20.10;1.00;;;;;;4986136;28;20213;-84
2022/07/02 05:28:45;;;;;;;4.43;1.75;;;20.40;1.00;;;;;;4970564;28;20176;-83
2022/07/02 05:31:11;;;;;;;2.85;1.67;;;;;;;;;;4968910;28;20192;-82
2022/07/02 05:33:37;;;;;;;2.28;1.40;;;;;;;;;;4986443;28;20212;-82
2022/07/02 05:36:03;;;;;;;3.58;1.60;;;;;;;;;;4969134;28;20188;-82
2022/07/02 05:38:29;;;;;;;3.38;1.92;;;;;;;;;;4972848;28;20188;-82
2022/07/02 05:40:55;;;;;;;2.75;1.88;;;;;;;;;;4984273;28;20570;-82
2022/07/02 05:43:21;;;;;;;4.38;1.52;;;;;;;;;;4984056;28;20211;-81
2022/07/02 05:45:48;;;;;;;2.40;1.50;;;;;;;;;;4985642;28;20191;-82
2022/07/02 05:48:14;;;;;;;2.92;1.50;;;;;;;;;;4986439;28;20256;-82
2022/07/02 05:50:40;;;;;;;2.40;1.58;;;;;;;;;;4968184;28;20196;-82
2022/07/02 05:53:06;;;;;;;2.90;1.73;;;;;;;;;;4968702;28;20212;-82
2022/07/02 05:55:32;;;;;;;1.67;1.58;;;;;;;;;;4968941;28;20203;-81
2022/07/02 05:57:58;;;;;;;1.95;1.70;;;;;;;;;;4986760;28;20405;-82
2022/07/02 06:00:24;;;;;;;2.97;1.55;;;;;;;;;;4968160;28;20195;-82
2022/07/02 06:02:50;;;;;;;2.78;1.40;;;;;;;;;;4985654;28;20209;-82
2022/07/02 06:08:00;;;;;;;2.90;1.40;;;;;;;;;;4986644;28;20200;-82
2022/07/02 06:10:26;;;;;;;2.60;1.60;;;;;;;;;;4984206;28;20188;-82
2022/07/02 06:12:52;;;;;;;2.33;1.52;;;;;;;;;;4966383;28;20212;-82
2022/07/02 06:15:20;;;;;;;1.55;1.20;;;;;;;;;;4967220;28;20860;-82
2022/07/02 06:17:46;;;;;;;2.42;1.45;;;;;;;;;;4968120;28;20276;-82
2022/07/02 06:20:13;;;;;;;3.67;1.40;;;;;;;;;;4985364;28;20599;-82
2022/07/02 06:22:39;;;;;;;2.65;1.42;;;;;;;;;;4985984;28;20578;-82
2022/07/02 06:25:05;;;;;;;2.20;1.50;;;;;;;;;;4986236;28;20665;-82
2022/07/02 06:27:34;;;;;;;1.70;1.60;;;;;;;;;;4968877;28;20617;-82
2022/07/02 06:30:00;;;;;;;1.88;1.33;;;;;;;;;;4985656;28;20180;-82
2022/07/02 06:32:27;;;;;;;1.40;1.30;;;;;;;;;;4968443;28;20207;-82
2022/07/02 06:34:53;;;;;;;2.65;1.60;;;;;;;;;;4967946;28;20239;-83
2022/07/02 06:37:19;;;;;;;1.98;1.50;;;;;;;;;;4985891;28;20223;-82
2022/07/02 06:39:46;;;;;;;2.53;1.50;;;;;;;;;;4970788;28;20265;-83
2022/07/02 06:42:26;;;;;;;1.80;1.50;;;;;;;;;;4986540;28;20204;-83
2022/07/02 06:44:53;;;;;;;2.40;1.40;;;;;;;;;;4970319;28;20184;-84
2022/07/02 06:47:20;;;;;;;2.67;1.30;;;;;;;;;;4987689;28;20199;-84
2022/07/02 06:49:46;;;;;;;1.92;1.30;;;;;;;;;;4986189;28;20192;-81
2022/07/02 06:52:12;;;;;;;1.52;1.42;;;;;;;;;;4984477;28;20219;-82
2022/07/02 06:54:38;;;;;;;2.60;1.50;;;;;;;;;;4966390;28;20299;-83
2022/07/02 06:57:04;;;;;;;1.95;1.25;;;;;;;;;;4982189;28;20180;-83
2022/07/02 06:59:31;;;;;;;2.92;1.60;;;;;;;;;;4983483;28;20188;-83
2022/07/02 14:21:58;;;;;;;2.58;0.82;;;;;;;;;;5001284;28;20257;-88
2022/07/02 14:24:24;;;;;;;0.73;0.73;;;;;;;;;;5002754;28;20191;-88
2022/07/02 14:26:50;;;;;;;0.85;0.70;;;;;;;;;;5003302;28;20183;-88
2022/07/02 14:29:16;;;;;;;2.28;1.00;;;;;;;;;;5002349;28;20677;-87
2022/07/02 14:31:46;;;;;;;1.15;0.68;;;;;;;;;;5018870;28;20690;-87
2022/07/02 14:34:12;;;;;;;4.20;0.77;;;;;;;;;;5002469;28;20969;-88
2022/07/02 14:36:38;;;;;;;0.95;0.73;;;;;;;;;;5002428;28;20261;-89
2022/07/02 14:39:04;;;;;;;0.82;0.68;;;;;;;;;;5003681;28;20206;-89
2022/07/02 14:41:33;;;;;;;0.50;0.50;;;;;;;;;;5003924;28;20649;-88
2022/07/02 14:44:02;;;;;;;0.73;0.73;;;;;;;;;;4996587;28;20704;-88
2022/07/02 14:46:31;;;;;;;2.95;0.88;;;;;;;;;;5004154;28;20993;-89
2022/07/02 14:48:58;;;;;;;1.13;0.70;;;;;;;;;;5002043;28;20188;-90
2022/07/02 14:51:25;;;;;;;2.88;0.90;;;;;;;;;;5003472;28;20596;-89
2022/07/02 14:53:51;;;;;;;1.60;0.88;;;;;;;;;;5003744;28;20207;-89
2022/07/02 14:56:17;;;;;;;1.75;0.80;;;;;;;;;;5002436;28;20322;-89
2022/07/02 14:58:43;;;;;;;2.53;1.45;;;;;;;;;;5002216;28;20274;-89
2022/07/02 15:01:09;;;;;;;1.23;1.13;;;;;;;;;;5003962;28;20625;-89
2022/07/02 15:03:35;;;;;;;0.82;0.82;;;;;;;;;;5003718;28;20218;-89
2022/07/02 15:06:01;;;;;;;1.48;0.88;;;;;;;;;;5002908;28;20191;-88
2022/07/02 15:08:27;;;;;;;1.88;0.68;;;;;;;;;;5002046;28;20192;-88
2022/07/02 15:10:53;;;;;;;1.30;0.80;;;;;;;;;;5001871;28;20924;-89
2022/07/02 15:13:19;;;;;;;1.60;0.80;;;;;;;;;;5001935;28;20204;-89
2022/07/02 15:16:00;;;;;;;1.00;0.77;;;;;;;;;;5001751;28;20188;-88
2022/07/02 15:18:29;;;;;;;1.33;0.75;;;;;;;;;;5001716;28;20192;-88
2022/07/02 15:20:57;;;;;;;1.15;0.80;;;;;;;;;;5001182;28;20203;-89
2022/07/02 15:23:23;;;;;;;1.00;0.80;;;;;;;;;;5001721;28;20676;-89
2022/07/02 15:25:50;;;;;;;1.38;0.88;;;;;;;;;;5001369;28;20191;-89
2022/07/02 15:28:22;;;;;;;1.58;0.70;;;;;;;;;;5003278;28;20184;-88
2022/07/02 15:30:48;;;;;;;2.65;0.90;;;;;;;;;;5001789;28;20214;-88
2022/07/02 15:33:17;;;;;;;0.60;0.60;;;;;;;;;;5001704;28;20207;-89
2022/07/02 15:35:44;;;;;;;3.65;1.10;;;;;;;;;;5007553;28;20183;-89
2022/07/02 15:38:10;;;;;;;2.67;1.20;;;;;;;;;;5021991;28;20294;-89
2022/07/02 15:40:37;;;;;;;3.45;1.30;;;;;;;;;;5006302;28;20218;-89
2022/07/02 15:43:05;;;;;;;0.95;0.80;;;;;;;;;;5006476;28;20195;-89
2022/07/02 15:45:31;;;;;;;2.50;1.05;;;;;;;;;;4998013;28;20629;-90
2022/07/02 15:47:57;;;;;;;3.70;2.67;;;;;;;;;;5003278;28;20191;-89
2022/07/02 15:50:23;;;;;;;3.08;1.02;;;;;;;;;;5002325;28;20192;-89
2022/07/02 15:53:04;;;;;;;1.45;0.80;;;;;;;;;;5018483;28;20215;-88
2022/07/02 15:55:33;;;;;;;1.88;0.85;;;;;;;;;;4995211;28;20214;-88
2022/07/02 15:58:03;;;;;;;1.15;0.80;;;;;;;;;;5001910;28;20199;-89
2022/07/02 16:00:31;;;;;;;0.82;0.50;;;;;;;;;;5003578;28;20204;-88
2022/07/02 16:02:58;;;;;;;1.05;0.65;;;;;;;;;;5001965;28;20206;-89
2022/07/02 16:05:24;;;;;;;0.80;0.70;;;;;;;;;;5003844;28;20241;-89
2022/07/02 16:07:51;;;;;;;0.75;0.63;;;;;;;;;;5017785;28;20191;-88
2022/07/02 16:10:18;;;;;;;2.20;1.67;;;;;;;;;;5003513;28;20188;-88
2022/07/02 16:12:44;;;;;;;1.88;0.68;;;;;;;;;;5003231;28;20709;-88
2022/07/02 16:15:11;;;;;;;1.00;0.80;;;;;;;;;;5002227;28;20247;-88
2022/07/02 16:17:39;;;;;;;0.98;0.60;;;;;;;;;;5002235;28;20191;-88
2022/07/02 16:20:06;;;;;;;0.52;0.50;;;;;;;;;;5002171;28;20552;-88
2022/07/02 16:22:32;;;;;;;0.50;0.50;;;;;;;;;;5002952;28;20703;-88
2022/07/02 16:24:58;;;;;;;1.05;0.70;;;;;;;;;;5002050;28;20191;-89
2022/07/02 16:27:24;;;;;;;1.67;0.70;;;;;;;;;;5002232;28;20387;-89
2022/07/02 16:29:50;;;;;;;2.42;0.85;;;;;;;;;;5001766;28;20215;-88
2022/07/02 16:32:26;;;;;;;2.00;0.95;;;;;;;;;;5001542;28;20215;-88
2022/07/02 16:35:00;;;;;;;3.85;1.35;;;;;;;;;;5018594;28;20555;-89
2022/07/02 16:37:31;;;;;;;1.02;0.70;;;;;;;;;;5018401;28;20198;-88
2022/07/02 16:40:01;;;;;;;1.30;0.73;;;;;;;;;;5003632;28;20669;-89
2022/07/02 16:42:28;;;;;;;0.85;0.82;;;;;;;;;;5018094;28;20203;-89
2022/07/02 16:44:54;;;;;;;1.65;0.70;;;;;;;;;;5004946;28;20205;-89
2022/07/02 16:47:26;;;;;;;1.55;0.70;;;;;;;;;;5006499;28;20282;-90
2022/07/02 16:49:54;;;;;;;1.02;0.70;;;;;;;;;;5012875;28;20187;-87
2022/07/02 16:52:22;;;;;;;1.33;0.60;;;;;;;;;;5005930;28;20285;-86
2022/07/02 16:54:48;;;;;;;1.85;0.70;;;;;;;;;;5004376;28;20326;-87
2022/07/02 16:57:15;;;;;;;0.63;0.60;;;;;;;;;;5007349;28;20760;-88
2022/07/02 16:59:42;;;;;;;1.55;0.70;;;;;;;;;;5003332;28;20325;-89
2022/07/02 17:02:16;;;;;;;1.50;0.88;;;;;;;;;;5008621;28;20294;-89
2022/07/02 17:04:42;;;;;;;1.88;0.65;;;;;;;;;;4997068;28;20273;-88
2022/07/02 17:07:08;;;;;;;3.00;2.67;;;;;;;;;;5004806;28;20211;-88
2022/07/02 17:09:34;;;;;;;7.15;6.55;;;;;;;;;;5020258;28;20309;-88
2022/07/02 17:12:00;;;;;;;1.55;1.30;;;;;;;;;;5005603;28;20191;-88
2022/07/02 17:14:26;;;;;;;1.85;1.00;;;;;;;;;;5003776;28;20215;-88
2022/07/02 17:16:52;;;;;;;1.63;1.08;;;;;;;;;;5004735;28;20214;-87
2022/07/02 17:19:18;;;;;;;2.83;2.22;;;;;;;;;;5005184;28;20263;-88
2022/07/02 17:21:44;;;;;;;6.00;4.65;;;;;;;;;;5006328;28;20692;-88
2022/07/02 17:24:10;;;;;;;1.58;1.20;;;;;;;;;;5002290;28;20211;-88
2022/07/02 17:26:37;;;;;;;0.60;0.60;;;;;;;;;;5007562;28;20657;-88
2022/07/02 17:29:03;;;;;;;0.98;0.80;;;;;;;;;;5005769;28;20209;-88
2022/07/02 17:31:29;;;;;;;1.40;1.30;;;;;;;;;;5005897;28;20249;-88
2022/07/02 17:33:55;;;;;;;1.08;0.98;;;;;;;;;;5005290;28;20614;-88
2022/07/02 17:36:21;;;;;;;0.60;0.50;;;;;;;;;;5007838;28;20183;-88
2022/07/02 17:38:47;;;;;;;1.70;0.80;;;;;;;;;;5004479;28;20252;-88
2022/07/02 17:41:13;;;;;;;0.57;0.55;;;;;;;;;;5005966;28;20285;-90
2022/07/02 17:43:39;;;;;;;0.90;0.70;;;;;;;;;;5006551;28;20207;-89
2022/07/02 17:46:05;;;;;;;0.80;0.80;;;;;;;;;;5005045;28;20276;-88
2022/07/02 17:48:31;;;;;;;0.88;0.88;;;;;;;;;;5006126;28;20190;-89
2022/07/02 17:50:57;;;;;;;1.40;1.30;;;;;;;;;;5022817;28;20188;-88
2022/07/02 17:53:23;;;;;;;1.50;1.10;;;;;;;;;;5021332;28;20214;-88
2022/07/02 17:55:49;;;;;;;1.60;1.30;;;;;;;;;;4996869;28;20179;-89
2022/07/02 17:58:16;;;;;;;3.83;2.53;;;;;;;;;;5005607;28;20237;-89
2022/07/02 18:00:43;;;;;;;2.85;1.90;;;;;;;;;;5004419;28;20180;-88
2022/07/02 18:03:09;;;;;;;1.45;1.35;;;;;;;;;;5021033;28;20715;-88
2022/07/02 18:05:35;;;;;;;1.25;1.15;;;;;;;;;;5006911;28;20187;-89
2022/07/02 18:08:01;;;;;;;1.45;0.90;;;;;;;;;;5004586;28;20202;-88
2022/07/02 18:10:27;;;;;;;1.05;0.85;;;;;;;;;;5004483;28;20198;-89
2022/07/02 18:12:53;;;;;;;0.70;0.70;;;;;;;;;;5004984;28;20214;-88
2022/07/02 18:15:19;;;;;;;0.95;0.80;;;;;;;;;;5003688;28;20300;-88
2022/07/02 18:17:45;;;;;;;1.73;0.70;;;;;;;;;;5020469;28;20190;-88
2022/07/02 18:20:12;;;;;;;1.45;0.80;;;;;;;;;;5002971;28;20285;-88
2022/07/02 18:22:39;;;;;;;0.93;0.80;;;;;;;;;;5002841;28;20576;-88
2022/07/02 18:25:06;;;;;;;1.00;0.88;;;;;;;;;;5002994;28;20190;-88
2022/07/02 18:27:32;;;;;;;1.20;0.85;;;;;;;;;;5003482;28;20759;-88
2022/07/02 18:29:58;;;;;;;1.02;0.77;;;;;;;;;;5005390;28;20389;-88
2022/07/02 18:32:25;;;;;;;0.85;0.70;;;;;;;;;;5003106;28;20322;-88
2022/07/02 18:34:51;;;;;;;3.53;0.80;;;;;;;;;;5004730;28;20704;-88
2022/07/02 18:37:17;;;;;;;0.80;0.80;;;;;;;;;;5003316;28;20270;-88
2022/07/02 18:39:43;;;;;;;0.65;0.63;;;;;;;;;;5002929;28;20708;-88
2022/07/02 18:42:09;;;;;;;1.95;0.90;;;;;;;;;;5002636;28;20247;-87
2022/07/02 18:44:35;;;;;;;1.70;0.93;;;;;;;;;;5003197;28;20226;-89
2022/07/02 18:47:01;;;;;;;2.25;0.80;;;;;;;;;;5003745;28;20188;-88
2022/07/02 18:49:27;;;;;;;1.33;1.00;;;;;;;;;;5005322;28;20184;-88
2022/07/02 18:51:53;;;;;;;1.58;0.80;;;;;;;;;;5002903;28;20187;-87
2022/07/02 18:54:19;;;;;;;2.17;1.10;;;;;;;;;;5003065;28;20314;-87
2022/07/02 18:56:45;;;;;;;1.38;0.90;;;;;;;;;;5005007;28;20313;-88
2022/07/02 18:59:16;;;;;;;1.40;0.80;;;;;;;;;;5003251;28;20419;-89
2022/07/02 19:01:42;;;;;;;2.22;0.80;;;;;;;;;;5020222;28;20676;-88
2022/07/02 19:04:09;;;;;;;2.03;0.90;;;;;;;;;;5006076;28;20207;-89
2022/07/02 19:06:35;;;;;;;0.80;0.80;;;;;;;;;;5002634;28;20199;-88
2022/07/02 19:09:01;;;;;;;1.27;0.80;;;;;;;;;;5002229;28;20676;-88
2022/07/02 19:11:27;;;;;;;0.95;0.90;;;;;;;;;;5002661;28;20295;-88
2022/07/02 19:13:53;;;;;;;1.08;0.95;;;;;;;;;;5002559;28;20302;-88
2022/07/02 19:16:19;;;;;;;1.60;0.80;;;;;;;;;;5002444;28;20243;-88
2022/07/02 19:18:45;;;;;;;0.73;0.73;;;;;;;;;;5002847;28;20180;-88
2022/07/02 19:21:11;;;;;;;1.13;0.80;;;;;;;;;;5003599;28;20211;-89
2022/07/02 19:23:38;;;;;;;1.25;1.00;;;;;;;;;;5003201;28;20204;-89
2022/07/02 19:26:04;;;;;;;2.15;1.10;;;;;;;;;;5001792;28;20183;-87
2022/07/02 19:31:15;;;;;;;0.80;0.80;;;;;;;;;;5006346;28;20205;-88
2022/07/02 19:33:41;;;;;;;2.10;1.13;;;;;;;;;;5009237;28;20615;-89
2022/07/02 19:36:07;;;;;;;2.63;1.00;;;;;;;;;;5007303;28;20184;-90
2022/07/02 19:38:33;;;;;;;1.33;1.20;;;;;;;;;;5007288;28;20245;-90
2022/07/02 19:40:59;;;;;;;1.15;1.00;;;;;;;;;;5008595;28;20715;-88
2022/07/02 19:43:25;;;;;;;1.00;0.90;;;;;;;;;;5009543;28;20290;-88
2022/07/02 19:45:51;;;;;;;2.50;1.20;;;;;;;;;;5009778;28;20721;-89
2022/07/02 19:48:17;;;;;;;1.20;1.10;;;;;;;;;;5007303;28;20278;-88
2022/07/02 19:50:43;;;;;;;1.25;0.95;;;;;;;;;;5009364;28;20186;-89
2022/07/02 19:53:09;;;;;;;1.85;1.15;;;;;;;;;;5010413;28;20230;-88
2022/07/02 19:55:36;;;;;;;1.20;1.10;;;;;;;;;;5007967;28;20210;-88
2022/07/02 19:58:02;;;;;;;1.58;1.10;;;;;;;;;;5007735;28;20634;-88
2022/07/02 20:00:32;;;;;;;2.58;1.52;;;;;;;;;;5009290;28;20206;-87
2022/07/02 20:02:58;;;;;;;1.52;1.40;;;;;;;;;;5011327;28;20231;-88
2022/07/02 20:05:24;;;;;;;2.85;1.48;;;;;;;;;;5010264;28;20579;-88
2022/07/02 20:07:50;;;;;;;1.80;1.38;;;;;;;;;;5002103;28;20192;-88
2022/07/02 20:10:16;;;;;;;1.92;1.30;;;;;;;;;;4995957;28;20191;-89
2022/07/02 20:12:42;;;;;;;1.75;1.20;;;;;;;;;;5005561;28;20353;-89
2022/07/02 20:15:08;;;;;;;1.30;1.20;;;;;;;;;;5006886;28;20211;-89
2022/07/02 20:17:34;;;;;;;1.95;1.30;;;;;;;;;;5004533;28;20183;-86
2022/07/02 20:20:00;;;;;;;3.10;2.50;;;;;;;;;;4965340;28;1069095;-86
2022/07/02 20:22:27;;;;;;;2.10;2.00;;;;;;;;;;5004678;28;20732;-88
2022/07/02 20:24:53;;;;;;;1.80;1.60;;;;;;;;;;5005797;28;20183;-87
2022/07/02 20:27:18;;;;;;;1.45;1.35;;;;;;;;;;5004966;28;20457;-87
2022/07/02 20:29:44;;;;;;;1.40;1.30;;;;;;;;;;5004112;28;20191;-86
2022/07/02 20:32:10;;;;;;;4.28;3.80;;;;;;;;;;5006237;28;20331;-86
2022/07/02 20:34:36;;;;;;;2.55;2.35;;;;;;;;;;5008267;28;20212;-87
2022/07/02 20:37:02;;;;;;;2.13;1.92;;;;;;;;;;5003797;28;20178;-86
2022/07/02 20:39:28;;;;;;;2.22;1.60;;;;;;;;;;5005071;28;20668;-87
2022/07/02 20:41:54;;;;;;;1.42;1.27;;;;;;;;;;5004694;28;20183;-87
2022/07/02 20:44:20;;;;;;;1.20;1.10;;;;;;;;;;5002304;28;21103;-86
2022/07/02 20:46:46;;;;;;;2.45;1.23;;;;;;;;;;5004200;28;20184;-86
2022/07/02 20:49:14;;;;;;;1.50;1.30;;;;;;;;;;5004576;28;20521;-86
2022/07/02 20:51:45;;;;;;;1.63;1.40;;;;;;;;;;4999222;28;20326;-85
2022/07/02 20:54:13;;;;;;;2.53;1.35;;;;;;;;;;5003773;28;20288;-86
2022/07/02 20:56:39;;;;;;;1.20;1.10;;;;;;;;;;5004090;28;20192;-86
2022/07/02 20:59:05;;;;;;;1.40;1.30;;;;;;;;;;5005658;28;20190;-86
2022/07/02 21:01:32;;;;;;;1.42;1.33;;;;;;;;;;5004434;28;20722;-88
2022/07/02 21:03:58;;;;;;;2.05;1.17;;;;;;;;;;5003924;28;20334;-86
2022/07/02 21:06:24;;;;;;;2.45;1.40;;;;;;;;;;5004637;28;20286;-85
2022/07/02 21:08:50;;;;;;;1.35;1.20;;;;;;;;;;5005936;28;20195;-86
2022/07/02 21:11:16;;;;;;;2.08;1.30;;;;;;;;;;5005509;28;20188;-87
2022/07/02 21:13:42;;;;;;;1.95;1.30;;;;;;;;;;4998599;28;20207;-87